Time;durP1;ratioP1;P1;durP2;ratioP2;P2;SDS_P1;SDS_P2;PMS_P1;PMS_P2;Temp;Humidity;BMP_temperature;BMP_pressure;BME280_temperature;BME280_humidity;BME280_pressure;Samples;Min_cycle;Max_cycle;Signal;HPM_P1;HPM_P2
2022/12/13 00:05:50;;;;;;;6.72;3.10;;;;;;;0.76;69.78;99931.19;4893559;28;20048;-58
2022/12/13 00:08:31;;;;;;;4.38;2.30;;;;;;;0.83;69.28;99933.03;4821668;28;20045;-60
2022/12/13 00:11:28;;;;;;;9.60;2.50;;;;;;;0.92;68.83;99922.00;4853283;28;20045;-60
2022/12/13 00:14:31;;;;;;;5.85;2.42;;;;;;;1.06;69.15;99912.81;4829872;28;20330;-60
2022/12/13 00:17:38;;;;;;;8.23;3.85;;;;;;;1.18;68.55;99891.56;4854057;28;20043;-62
2022/12/13 00:20:21;;;;;;;8.43;2.30;;;;;;;1.11;68.37;99876.03;4814227;28;20595;-64
2022/12/13 00:23:20;;;;;;;4.50;2.30;;;;;;;1.12;69.06;99872.59;4846676;28;20041;-60
2022/12/13 00:26:17;;;;;;;4.30;2.15;;;;;;;1.07;68.77;99872.53;4881169;28;20042;-61
2022/12/13 00:32:22;;;;;;;15.55;2.63;;;;;;;1.12;69.06;99864.88;4761057;28;20388;-59
2022/12/13 00:38:19;;;;;;;7.03;2.88;;;;;;;1.12;69.73;99842.56;4796164;28;20215;-58
2022/12/13 00:41:14;;;;;;;5.97;2.55;;;;;;;0.99;69.29;99838.94;4812623;28;20050;-60
2022/12/13 00:44:02;;;;;;;3.60;2.30;;;;;;;1.01;69.13;99833.84;4825692;28;20050;-60
2022/12/13 00:46:41;;;;;;;5.93;2.40;;;;;;;0.95;68.81;99818.28;4748760;28;20038;-61
2022/12/13 00:49:25;;;;;;;9.13;3.50;;;;;;;0.96;69.20;99807.19;4786637;28;20078;-60
2022/12/13 00:52:22;;;;;;;5.82;2.30;;;;;;;1.00;69.21;99796.06;4803208;29;20054;-61
2022/12/13 00:54:59;;;;;;;8.05;2.55;;;;;;;1.06;69.36;99791.03;4762590;29;20083;-62
2022/12/13 01:00:43;;;;;;;10.90;2.53;;;;;;;1.31;68.75;99766.50;4785909;29;20402;-62
2022/12/13 01:03:28;;;;;;;8.35;2.50;;;;;;;1.46;68.34;99770.97;4717586;28;20043;-64
2022/12/13 01:06:35;;;;;;;7.32;2.38;;;;;;;1.62;68.18;99752.31;4850390;28;20138;-62
2022/12/13 01:09:26;;;;;;;7.45;2.90;;;;;;;1.81;67.96;99760.22;4860566;28;20034;-63
2022/12/13 01:12:18;;;;;;;5.32;2.28;;;;;;;1.88;67.87;99749.16;4869677;28;20084;-63
2022/12/13 01:14:59;;;;;;;10.38;2.42;;;;;;;1.94;67.86;99733.75;4823508;28;20048;-63
2022/12/13 01:17:48;;;;;;;8.02;2.35;;;;;;;1.94;66.69;99729.44;4853376;28;20307;-63
2022/12/13 01:20:29;;;;;;;5.25;2.15;;;;;;;1.96;66.82;99711.44;4835365;28;20211;-62
2022/12/13 01:23:37;;;;;;;8.70;2.13;;;;;;;1.95;65.89;99704.56;4787397;28;20062;-66
2022/12/13 01:26:12;;;;;;;5.93;2.05;;;;;;;1.99;66.23;99683.09;4815586;28;20042;-66
2022/12/13 01:29:10;;;;;;;6.82;1.92;;;;;;;2.12;66.04;99677.22;4915954;28;20216;-67
2022/12/13 01:31:46;;;;;;;8.32;2.65;;;;;;;2.07;66.28;99632.53;4839849;28;20352;-66
2022/12/13 01:37:23;;;;;;;7.50;2.22;;;;;;;2.32;65.18;99612.06;4866685;28;20268;-67
2022/12/13 01:40:28;;;;;;;10.05;2.58;;;;;;;2.44;64.97;99617.28;4902008;28;20636;-67
2022/12/13 01:45:55;;;;;;;7.15;2.10;;;;;;;2.48;64.14;99577.78;4851611;28;20047;-66
2022/12/13 01:48:40;;;;;;;5.28;1.98;;;;;;;2.52;63.76;99558.91;4864684;28;20321;-67
2022/12/13 01:51:30;;;;;;;9.05;2.13;;;;;;;2.62;64.20;99558.91;4917520;28;20446;-67
2022/12/13 01:54:18;;;;;;;9.90;2.20;;;;;;;2.57;64.10;99530.53;4841256;28;20072;-68
2022/12/13 01:56:58;;;;;;;7.50;2.17;;;;;;;2.66;63.30;99524.56;4852139;28;20120;-69
2022/12/13 01:59:59;;;;;;;4.75;2.10;;;;;;;2.72;63.33;99498.78;4850396;28;20109;-67
2022/12/13 02:02:48;;;;;;;3.17;1.45;;;;;;;2.74;63.48;99503.06;4909504;28;20333;-67
2022/12/13 02:05:40;;;;;;;8.88;2.00;;;;;;;2.68;63.96;99471.25;4878437;28;20072;-67
2022/12/13 02:08:19;;;;;;;13.18;2.65;;;;;;;2.76;64.07;99482.47;4913316;28;20048;-68
2022/12/13 02:11:17;;;;;;;11.55;2.47;;;;;;;2.79;64.07;99470.41;4903408;28;20179;-68
2022/12/13 02:14:10;;;;;;;5.70;2.00;;;;;;;2.69;64.55;99460.06;4879171;28;20055;-68
2022/12/13 02:20:47;;;;;;;5.10;1.98;;;;;;;2.84;64.42;99452.38;4848269;28;20662;-69
2022/12/13 02:24:04;;;;;;;6.53;2.15;;;;;;;2.81;65.34;99463.53;4856532;28;20582;-70
2022/12/13 02:27:02;;;;;;;5.78;2.00;;;;;;;2.74;65.50;99450.63;4843312;28;20049;-70
2022/12/13 02:30:23;;;;;;;8.30;2.38;;;;;;;2.59;65.85;99429.09;4917409;28;20067;-72
2022/12/13 02:33:34;;;;;;;5.07;2.00;;;;;;;2.49;67.01;99424.78;4859773;28;20117;-70
2022/12/13 02:36:21;;;;;;;7.63;2.45;;;;;;;1.75;67.38;99307.72;4892673;28;20041;-72
2022/12/13 02:39:24;;;;;;;6.90;2.83;;;;;;;2.48;67.55;99412.75;4904810;28;20033;-73
2022/12/13 02:42:09;;;;;;;14.63;2.30;;;;;;;2.37;67.99;99414.41;4896609;28;20102;-73
2022/12/13 02:45:05;;;;;;;9.80;2.20;;;;;;;2.29;68.70;99398.06;4895135;28;20101;-77
2022/12/13 02:47:57;;;;;;;5.75;2.08;;;;;;;2.04;69.25;99369.63;4906143;28;25029;-69
2022/12/13 02:50:43;;;;;;;5.47;2.08;;;;;;;2.03;70.21;99367.94;4913408;28;20045;-66
2022/12/13 02:56:25;;;;;;;6.97;2.05;;;;;;;1.87;71.58;99335.22;4906427;28;20049;-69
2022/12/13 02:59:15;;;;;;;4.30;2.00;;;;;;;1.85;71.79;99327.50;4906850;28;20052;-70
2022/12/13 03:08:37;;;;;;;4.00;1.95;;;;;;;1.76;73.07;99311.16;4914845;28;20061;-71
2022/12/13 03:14:46;;;;;;;5.07;1.88;;;;;;;1.68;73.65;99322.28;4904286;28;20060;-69
2022/12/13 03:17:30;;;;;;;3.55;1.77;;;;;;;1.76;74.26;99329.19;4905159;28;20164;-68
2022/12/13 03:20:02;;;;;;;5.10;1.90;;;;;;;1.75;74.44;99320.59;4917785;28;20051;-68
2022/12/13 03:22:56;;;;;;;5.07;1.85;;;;;;;1.72;75.02;99311.16;4900186;28;20069;-68
2022/12/13 03:25:38;;;;;;;3.88;2.38;;;;;;;1.68;75.45;99309.41;4922670;28;20041;-68
2022/12/13 03:28:37;;;;;;;9.07;2.45;;;;;;;1.59;75.72;99286.19;4903736;28;20052;-64
2022/12/13 03:31:41;;;;;;;5.93;2.15;;;;;;;1.65;76.44;99288.78;4864615;28;20048;-63
2022/12/13 03:34:26;;;;;;;6.53;2.28;;;;;;;1.56;77.00;99281.03;4903706;28;21633;-67
2022/12/13 03:40:14;;;;;;;5.82;2.33;;;;;;;1.52;78.46;99287.00;4895516;28;20049;-63
2022/12/13 03:43:14;;;;;;;6.90;3.25;;;;;;;1.50;79.40;99278.44;4906128;28;20255;-63
2022/12/13 03:46:07;;;;;;;14.75;3.35;;;;;;;1.37;80.47;99274.06;4845077;28;20056;-65
2022/12/13 03:49:07;;;;;;;17.95;4.32;;;;;;;1.25;81.95;99277.47;4851445;28;20048;-67
2022/12/13 03:54:56;;;;;;;16.95;4.40;;;;;;;1.02;85.41;99264.44;4898559;28;20072;-67
2022/12/13 03:57:28;;;;;;;13.35;5.13;;;;;;;0.90;86.86;99244.66;4898890;28;20321;-66
2022/12/13 04:00:25;;;;;;;11.55;4.97;;;;;;;0.71;87.61;99228.25;4865648;28;20056;-67
2022/12/13 04:03:18;;;;;;;18.25;6.30;;;;;;;0.72;88.77;99235.09;4927134;28;20045;-63
2022/12/13 04:06:08;;;;;;;15.32;4.88;;;;;;;0.68;90.08;99217.09;4896660;28;20207;-66
2022/12/13 04:09:13;;;;;;;18.55;4.22;;;;;;;0.57;90.58;99183.59;4912360;28;20047;-65
2022/12/13 04:15:04;;;;;;;9.00;3.80;;;;;;;0.69;91.85;99178.53;4906271;28;20060;-65
2022/12/13 04:23:31;;;;;;;5.45;3.05;;;;;;;0.62;92.44;99126.22;4884153;28;20271;-62
2022/12/13 04:26:26;;;;;;;6.57;3.08;;;;;;;0.67;93.01;99123.66;4896488;28;20063;-63
2022/12/13 04:29:08;;;;;;;9.85;2.88;;;;;;;0.65;93.23;99109.97;4899505;28;20100;-65
2022/12/13 04:31:47;;;;;;;4.78;2.65;;;;;;;0.63;93.54;99116.81;4889621;28;20045;-65
2022/12/13 04:35:04;;;;;;;6.38;2.63;;;;;;;0.62;94.00;99089.34;4913205;28;20045;-65
2022/12/13 04:37:55;;;;;;;8.65;2.70;;;;;;;0.60;94.30;99093.63;4861778;28;20080;-64
2022/12/13 04:40:34;;;;;;;6.32;3.08;;;;;;;0.55;94.58;99087.59;4863906;28;20053;-63
2022/12/13 04:43:11;;;;;;;7.38;3.38;;;;;;;0.49;94.98;99073.00;4907781;28;20044;-63
2022/12/13 04:45:50;;;;;;;10.27;3.20;;;;;;;0.49;95.36;99059.31;4874033;28;20053;-61
2022/12/13 04:48:25;;;;;;;12.00;3.15;;;;;;;0.45;95.55;99034.44;4913205;28;20068;-65
2022/12/13 04:51:32;;;;;;;8.50;4.03;;;;;;;0.39;95.86;99020.72;4876848;28;20047;-65
2022/12/13 04:54:18;;;;;;;8.43;3.30;;;;;;;0.41;96.40;99013.88;4861230;28;20049;-64
2022/12/13 04:56:57;;;;;;;6.03;3.15;;;;;;;0.42;96.38;99015.63;4894876;28;20361;-65
2022/12/13 04:59:53;;;;;;;8.27;3.08;;;;;;;0.38;96.42;99019.00;4862272;28;20107;-64
2022/12/13 05:02:30;;;;;;;7.50;2.63;;;;;;;0.36;96.73;99009.56;4816212;28;20069;-63
2022/12/13 05:05:13;;;;;;;6.95;2.80;;;;;;;0.32;97.40;98993.25;4920759;28;20071;-66
2022/12/13 05:08:03;;;;;;;5.82;2.85;;;;;;;0.30;97.56;98977.00;4890858;28;20068;-62
2022/12/13 05:10:52;;;;;;;5.10;2.38;;;;;;;0.35;97.69;98966.72;4884346;28;20074;-66
2022/12/13 05:13:42;;;;;;;4.78;2.00;;;;;;;0.28;98.04;98935.03;4862410;28;20286;-68
2022/12/13 05:16:32;;;;;;;5.85;2.30;;;;;;;0.35;98.12;98936.78;4910773;28;20084;-64
2022/12/13 05:19:24;;;;;;;2.45;1.50;;;;;;;0.39;98.44;98925.63;4899488;28;20041;-66
2022/12/13 05:22:17;;;;;;;5.72;1.52;;;;;;;0.43;98.76;98919.66;4901491;28;20044;-64
2022/12/13 05:25:13;;;;;;;3.40;1.13;;;;;;;0.50;98.93;98919.66;4885329;28;20163;-65
2022/12/13 05:27:52;;;;;;;4.85;1.33;;;;;;;0.52;98.74;98917.97;4887748;28;20050;-63
2022/12/13 05:30:48;;;;;;;0.88;0.80;;;;;;;0.51;98.83;98911.13;4851492;28;20377;-65
2022/12/13 05:33:40;;;;;;;1.92;0.90;;;;;;;0.48;98.46;98926.53;4876389;28;20052;-64
2022/12/13 05:39:13;;;;;;;2.55;1.00;;;;;;;0.36;98.68;98928.19;4890878;28;20057;-66
2022/12/13 05:42:05;;;;;;;1.83;0.90;;;;;;;0.28;98.91;98929.91;4889937;28;21667;-65
2022/12/13 05:45:06;;;;;;;1.92;1.10;;;;;;;0.23;98.91;98921.31;4887559;28;20041;-64
2022/12/13 05:48:03;;;;;;;5.50;3.20;;;;;;;0.20;99.31;98908.44;4872589;28;20053;-63
2022/12/13 05:51:01;;;;;;;4.40;2.50;;;;;;;0.15;99.17;98902.44;4846620;28;20254;-62
2022/12/13 05:53:46;;;;;;;6.38;1.23;;;;;;;0.11;99.35;98901.56;4814338;28;20090;-63
2022/12/13 05:56:38;;;;;;;2.28;1.40;;;;;;;0.10;99.59;98904.13;4844217;28;20046;-61
2022/12/13 05:59:46;;;;;;;5.22;2.28;;;;;;;-0.01;99.71;98880.97;4842004;28;20056;-65
2022/12/13 06:02:35;;;;;;;5.38;2.60;;;;;;;-0.04;100.00;98886.09;4876481;28;20056;-64
2022/12/13 06:05:15;;;;;;;11.90;3.35;;;;;;;-0.06;100.00;98893.78;4854449;28;20046;-66
2022/12/13 06:11:22;;;;;;;18.98;5.47;;;;;;;-0.22;100.00;98866.34;4798812;28;20051;-63
2022/12/13 06:14:16;;;;;;;13.00;6.78;;;;;;;-0.09;100.00;98868.09;4818123;28;20042;-62
2022/12/13 06:17:23;;;;;;;12.10;7.07;;;;;;;-0.10;100.00;98856.13;4833221;28;20046;-64
2022/12/13 06:20:10;;;;;;;18.95;9.73;;;;;;;-0.12;100.00;98852.69;4839674;28;20057;-62
2022/12/13 06:25:48;;;;;;;50.80;17.60;;;;;;;-0.11;100.00;98820.16;4842811;28;20122;-64
2022/12/13 06:28:29;;;;;;;51.90;9.48;;;;;;;-0.09;100.00;98827.03;4829466;28;20113;-60
2022/12/13 06:31:29;;;;;;;25.40;12.02;;;;;;;-0.12;100.00;98811.63;4815285;28;20055;-64
2022/12/13 06:34:22;;;;;;;29.92;13.98;;;;;;;-0.12;100.00;98805.63;4819637;28;20081;-62
2022/12/13 06:37:17;;;;;;;26.27;12.00;;;;;;;-0.11;100.00;98803.06;4827849;28;20074;-64
2022/12/13 06:40:16;;;;;;;21.92;10.00;;;;;;;-0.15;100.00;98791.06;4872808;28;20059;-62
2022/12/13 06:46:15;;;;;;;20.92;9.25;;;;;;;-0.27;100.00;98757.66;4836470;28;20327;-64
2022/12/13 06:49:00;;;;;;;16.27;7.35;;;;;;;-0.18;100.00;98765.38;4810734;28;20105;-63
2022/12/13 06:51:52;;;;;;;18.00;6.95;;;;;;;-0.16;100.00;98755.13;4810140;28;20113;-65
2022/12/13 06:54:32;;;;;;;13.85;6.53;;;;;;;-0.13;100.00;98747.41;4831995;28;21096;-66
2022/12/13 06:57:14;;;;;;;13.82;8.20;;;;;;;-0.30;100.00;98699.47;4829481;28;20084;-66
2022/12/13 07:03:14;;;;;;;23.00;12.95;;;;;;;-0.10;100.00;98712.34;4787034;28;20103;-69
2022/12/13 07:06:52;;;;;;;19.00;11.02;;;;;;;-0.01;100.00;98704.63;4796570;29;20050;-72
2022/12/13 07:17:07;;;;;;;16.52;5.80;;;;;;;0.03;100.00;98691.81;4620094;29;20047;-69
2022/12/13 07:20:02;;;;;;;14.43;6.72;;;;;;;0.06;100.00;98691.81;4676593;29;20058;-65
2022/12/13 07:30:47;;;;;;;11.07;5.18;;;;;;;0.11;100.00;98684.97;4624384;29;20059;-67
2022/12/13 07:37:22;;;;;;;16.55;6.10;;;;;;;0.20;100.00;98674.69;4635250;29;20054;-72
2022/12/13 07:40:09;;;;;;;12.95;5.50;;;;;;;0.22;100.00;98683.25;4661467;29;20050;-68
2022/12/13 07:42:59;;;;;;;13.98;6.25;;;;;;;0.24;100.00;98668.69;4676385;29;20051;-66
2022/12/13 07:51:45;;;;;;;16.88;5.50;;;;;;;0.42;100.00;98684.13;4704735;29;20109;-65
2022/12/13 07:54:30;;;;;;;17.70;6.30;;;;;;;0.46;100.00;98691.81;4762439;29;20079;-63
2022/12/13 07:57:28;;;;;;;18.80;5.97;;;;;;;0.45;100.00;98695.22;4788898;29;20064;-62
2022/12/13 08:00:03;;;;;;;20.30;5.53;;;;;;;0.50;100.00;98708.91;4780873;29;20280;-67
2022/12/13 08:02:57;;;;;;;13.77;4.28;;;;;;;0.63;100.00;98696.06;4785345;29;20048;-62
2022/12/13 08:08:34;;;;;;;18.13;4.97;;;;;;;0.82;100.00;98702.03;4809456;28;20047;-65
2022/12/13 08:11:26;;;;;;;23.02;5.15;;;;;;;0.84;100.00;98695.16;4804298;28;20048;-66
2022/12/13 08:14:24;;;;;;;19.73;4.80;;;;;;;0.89;100.00;98673.72;4805351;28;20358;-65
2022/12/13 08:17:48;;;;;;;19.02;4.35;;;;;;;0.91;100.00;98664.28;4767574;29;20111;-68
2022/12/13 08:20:52;;;;;;;21.10;5.05;;;;;;;0.90;100.00;98647.13;4756578;29;20055;-63
2022/12/13 08:26:45;;;;;;;16.17;3.45;;;;;;;1.01;100.00;98655.69;4812798;28;20333;-65
2022/12/13 08:30:14;;;;;;;14.15;3.20;;;;;;;1.02;100.00;98662.53;4801661;28;20320;-61
2022/12/13 08:36:18;;;;;;;11.48;3.33;;;;;;;1.10;100.00;98665.94;4720156;29;20045;-62
2022/12/13 08:39:05;;;;;;;11.15;3.33;;;;;;;1.08;100.00;98662.53;4751933;29;20319;-61
2022/12/13 08:41:54;;;;;;;13.40;3.13;;;;;;;0.91;100.00;98628.28;4707259;29;20056;-60
2022/12/13 08:44:57;;;;;;;11.57;3.35;;;;;;;1.11;100.00;98672.78;4729303;29;20117;-62
2022/12/13 08:47:40;;;;;;;9.60;3.40;;;;;;;1.17;100.00;98662.47;4723351;29;20064;-62
2022/12/13 08:50:22;;;;;;;13.07;3.10;;;;;;;1.18;100.00;98663.34;4768693;29;20056;-60
2022/12/13 08:53:16;;;;;;;11.02;3.13;;;;;;;1.16;100.00;98660.75;4751466;29;20194;-63
2022/12/13 08:56:02;;;;;;;9.35;3.53;;;;;;;1.13;99.07;98660.78;4749423;29;20045;-63
2022/12/13 08:58:47;;;;;;;14.07;3.65;;;;;;;1.14;98.55;98672.78;4726413;29;20250;-64
2022/12/13 09:02:13;;;;;;;11.25;3.47;;;;;;;1.10;98.52;98670.22;4770998;29;20229;-63
2022/12/13 09:04:56;;;;;;;8.85;3.60;;;;;;;1.07;98.17;98666.81;4776883;29;20049;-63
2022/12/13 09:07:48;;;;;;;16.10;4.72;;;;;;;0.81;97.84;98620.59;4730537;29;20141;-62
2022/12/13 09:13:47;;;;;;;14.02;4.07;;;;;;;1.04;97.42;98663.38;4788959;29;20048;-62
2022/12/13 09:16:35;;;;;;;8.35;4.25;;;;;;;1.05;97.13;98670.25;4724767;29;20400;-63
2022/12/13 09:22:38;;;;;;;9.95;3.70;;;;;;;1.00;97.27;98659.09;4795092;29;20110;-61
2022/12/13 09:25:22;;;;;;;;;;;;;;;0.98;97.37;98676.28;4783756;29;20050;-60
2022/12/13 09:28:19;;;;;;;9.27;3.67;;;;;;;0.96;97.61;98672.84;4801503;28;20343;-62
2022/12/13 09:31:10;;;;;;;12.48;4.10;;;;;;;0.96;97.61;98684.00;4812011;28;20059;-61
2022/12/13 09:39:35;;;;;;;;;;;;;;;0.96;98.07;98688.28;4799207;29;20204;-62
2022/12/13 09:42:27;;;;;;;10.70;3.55;;;;;;;0.96;97.86;98678.00;4796559;28;19926;-60
2022/12/13 09:45:49;;;;;;;12.15;3.70;;;;;;;0.83;98.02;98667.75;4777000;28;20410;-63
2022/12/13 09:48:52;;;;;;;;;;;;;;;;;;;;;
2022/12/13 09:52:17;;;;;;;10.25;3.50;;;;;;;0.90;97.94;98668.59;4900614;28;20045;-62
2022/12/13 09:55:30;;;;;;;10.90;4.05;;;;;;;0.87;98.15;98668.56;4814786;28;20074;-63
2022/12/13 10:04:37;;;;;;;13.38;4.35;;;;;;;0.85;98.40;98660.88;4777478;29;20271;-59
2022/12/13 10:10:44;;;;;;;22.02;6.50;;;;;;;0.93;97.16;98663.44;4773965;29;20047;-63
2022/12/13 10:13:39;;;;;;;14.57;6.32;;;;;;;0.91;97.24;98664.28;4773121;29;20052;-62
2022/12/13 10:17:08;;;;;;;14.10;4.47;;;;;;;0.86;97.35;98644.59;4790063;29;20054;-62
2022/12/13 10:19:50;;;;;;;11.90;3.90;;;;;;;0.65;97.21;98611.25;4728257;29;20052;-63
2022/12/13 10:22:49;;;;;;;16.17;4.38;;;;;;;0.78;97.29;98638.63;4739743;29;20048;-62
2022/12/13 10:29:05;;;;;;;25.20;7.40;;;;;;;0.59;98.03;98624.94;4758196;29;20931;-61
2022/12/13 10:31:48;;;;;;;21.35;6.38;;;;;;;0.64;97.92;98630.09;4811604;28;20074;-62
2022/12/13 10:34:42;;;;;;;19.50;7.45;;;;;;;0.59;98.36;98634.38;4853131;28;20049;-62
2022/12/13 10:37:38;;;;;;;25.08;7.82;;;;;;;0.50;98.34;98619.84;4862191;28;20039;-60
2022/12/13 10:40:43;;;;;;;22.38;7.28;;;;;;;0.47;98.19;98631.84;4873511;28;20128;-61
2022/12/13 10:43:51;;;;;;;21.45;6.50;;;;;;;0.47;98.45;98642.13;4887821;28;20052;-63
2022/12/13 10:46:31;;;;;;;19.75;6.53;;;;;;;0.43;98.50;98654.97;4886248;28;20045;-62
2022/12/13 10:52:46;;;;;;;17.75;5.55;;;;;;;0.31;97.82;98669.56;4852254;28;20071;-64
2022/12/13 11:01:57;;;;;;;19.00;6.93;;;;;;;0.07;97.55;98678.97;4853891;28;20060;-62
2022/12/13 11:04:41;;;;;;;19.75;6.20;;;;;;;0.11;97.61;98695.25;4891825;28;20095;-62
2022/12/13 11:07:38;;;;;;;21.55;7.10;;;;;;;-0.60;97.80;98577.13;4865778;28;20057;-63
2022/12/13 11:10:38;;;;;;;21.58;7.40;;;;;;;0.10;97.72;98688.38;4860791;28;20338;-64
2022/12/13 11:13:33;;;;;;;20.65;6.95;;;;;;;0.12;97.82;98686.69;4876422;28;20049;-63
2022/12/13 11:16:36;;;;;;;23.90;6.97;;;;;;;0.12;97.79;98689.25;4881247;28;20330;-64
2022/12/13 11:19:47;;;;;;;21.92;6.97;;;;;;;0.10;97.90;98698.66;4888298;28;20059;-64
2022/12/13 11:22:54;;;;;;;24.30;7.68;;;;;;;0.11;97.49;98701.22;4868575;28;20060;-61
2022/12/13 11:26:10;;;;;;;21.15;6.95;;;;;;;0.10;97.09;98708.94;4882281;28;20053;-60
2022/12/13 11:29:14;;;;;;;18.27;6.80;;;;;;;-0.17;96.33;98669.56;4843135;28;20314;-63
2022/12/13 11:32:05;;;;;;;18.77;7.20;;;;;;;0.05;96.23;98697.78;4844712;28;20042;-65
2022/12/13 11:38:15;;;;;;;14.75;5.95;;;;;;;0.07;95.78;98680.69;4890856;28;20063;-61
2022/12/13 11:47:41;;;;;;;16.13;4.45;;;;;;;0.05;94.30;98679.81;4895941;28;20041;-62
2022/12/13 11:50:24;;;;;;;12.40;4.43;;;;;;;-0.04;93.75;98663.56;4891701;28;20046;-64
2022/12/13 11:56:32;;;;;;;12.95;5.03;;;;;;;0.04;92.17;98678.13;4895435;28;20533;-63
2022/12/13 11:59:19;;;;;;;14.77;4.80;;;;;;;0.03;91.96;98661.00;4902299;28;20787;-64
2022/12/13 12:02:20;;;;;;;13.75;4.38;;;;;;;0.02;91.23;98669.56;4868144;28;20079;-60
2022/12/13 12:05:12;;;;;;;12.63;4.18;;;;;;;-0.30;90.35;98606.19;4856281;28;20052;-67
2022/12/13 12:07:56;;;;;;;12.52;4.35;;;;;;;-0.01;89.77;98644.72;4880165;28;20074;-63
2022/12/13 12:18:30;;;;;;;18.98;6.70;;;;;;;-0.32;88.55;98649.00;4730038;29;20375;-65
2022/12/13 12:21:38;;;;;;;20.85;7.20;;;;;;;-0.30;88.35;98649.84;4738673;29;20063;-64
2022/12/13 12:24:50;;;;;;;8.20;3.58;;;;;;;-0.33;88.34;98647.28;4730251;29;20245;-61
2022/12/13 12:28:16;;;;;;;12.52;3.45;;;;;;;-0.37;88.04;98650.72;4764685;29;20045;-65
2022/12/13 12:31:14;;;;;;;11.52;3.67;;;;;;;-0.41;88.14;98648.97;4741998;29;20097;-61
2022/12/13 12:34:19;;;;;;;10.68;3.50;;;;;;;-0.44;88.18;98640.41;4764641;29;20051;-64
2022/12/13 12:37:27;;;;;;;11.18;3.90;;;;;;;-0.40;88.14;98642.97;4764590;29;20055;-67
2022/12/13 12:40:37;;;;;;;7.65;3.08;;;;;;;-0.37;88.33;98650.72;4771142;29;20196;-66
2022/12/13 12:43:51;;;;;;;8.23;2.40;;;;;;;-0.41;87.76;98643.84;4744079;29;20165;-62
2022/12/13 12:46:51;;;;;;;6.82;2.75;;;;;;;-0.48;88.56;98641.25;4757201;29;20054;-66
2022/12/13 12:50:06;;;;;;;9.67;2.43;;;;;;;-0.32;89.04;98654.13;4751362;29;20050;-66
2022/12/13 12:53:01;;;;;;;8.20;2.50;;;;;;;-0.33;88.98;98608.78;4767874;28;20298;-63
2022/12/13 12:55:51;;;;;;;7.05;3.10;;;;;;;-0.31;88.90;98591.66;4873934;28;20038;-64
2022/12/13 12:58:37;;;;;;;9.55;3.40;;;;;;;-0.31;88.52;98576.28;4857988;28;20194;-66
2022/12/13 13:01:53;;;;;;;11.23;3.22;;;;;;;-0.34;88.38;98581.41;4877873;28;20033;-66
2022/12/13 13:04:43;;;;;;;10.52;2.78;;;;;;;-0.64;88.32;98546.31;4865112;28;20060;-66
2022/12/13 13:08:08;;;;;;;8.40;2.58;;;;;;;-0.36;88.63;98611.34;4897989;28;20091;-63
2022/12/13 13:14:30;;;;;;;6.20;2.80;;;;;;;-0.48;88.16;98625.00;4860072;28;20116;-68
2022/12/13 13:18:06;;;;;;;7.13;2.25;;;;;;;-0.51;88.65;98628.41;4861127;28;20068;-65
2022/12/13 13:20:50;;;;;;;6.97;2.45;;;;;;;-0.73;88.81;98596.75;4868665;28;20041;-63
2022/12/13 13:24:28;;;;;;;6.00;2.42;;;;;;;-0.53;89.14;98608.75;4882969;28;20049;-67
2022/12/13 13:30:37;;;;;;;5.55;2.42;;;;;;;-0.53;89.12;98613.88;4867989;28;20050;-68
2022/12/13 13:33:52;;;;;;;7.32;2.53;;;;;;;-0.55;88.87;98610.44;4826521;28;20100;-64
2022/12/13 13:37:05;;;;;;;12.57;3.00;;;;;;;-0.51;89.34;98617.31;4868399;28;20302;-64
2022/12/13 13:40:25;;;;;;;7.60;2.67;;;;;;;-0.55;89.20;98626.72;4850130;28;20117;-68
2022/12/13 13:43:19;;;;;;;7.20;2.97;;;;;;;-0.65;89.21;98609.56;4806476;29;20357;-68
2022/12/13 13:49:18;;;;;;;7.25;3.30;;;;;;;-0.82;89.13;98621.50;4863216;28;20037;-68
2022/12/13 13:52:20;;;;;;;9.75;3.17;;;;;;;-0.89;89.29;98631.75;4888412;28;20048;-68
2022/12/13 13:55:41;;;;;;;9.07;3.05;;;;;;;-0.94;89.30;98638.56;4885896;28;20068;-66
2022/12/13 13:59:24;;;;;;;13.07;4.00;;;;;;;-0.98;89.41;98634.28;4835500;28;20052;-70
2022/12/13 14:03:01;;;;;;;9.23;3.20;;;;;;;-0.99;89.87;98632.56;4914998;28;20075;-72
2022/12/13 14:06:40;;;;;;;15.00;3.88;;;;;;;-0.99;90.25;98624.88;4782653;28;20031;-72
2022/12/13 14:10:15;;;;;;;11.95;3.38;;;;;;;-1.42;90.20;98547.84;4808462;28;20077;-69
2022/12/13 14:13:41;;;;;;;15.85;4.03;;;;;;;-0.91;90.31;98607.81;4759157;29;20444;-70
2022/12/13 14:17:02;;;;;;;13.60;4.50;;;;;;;-0.94;90.18;98618.06;4755158;29;20051;-70
2022/12/13 14:20:36;;;;;;;10.68;3.80;;;;;;;-1.00;89.91;98612.94;4813143;28;20062;-72
2022/12/13 14:23:24;;;;;;;17.83;4.38;;;;;;;-1.00;90.22;98612.94;4805716;28;20158;-68
2022/12/13 14:26:35;;;;;;;8.77;4.30;;;;;;;-1.08;90.38;98578.69;4798537;28;20062;-67
2022/12/13 14:32:50;;;;;;;17.50;5.50;;;;;;;-0.89;90.97;98580.47;4785381;28;20037;-69
2022/12/13 14:35:28;;;;;;;15.32;4.88;;;;;;;-1.01;91.09;98554.78;4836221;28;20106;-67
2022/12/13 14:38:32;;;;;;;13.98;4.47;;;;;;;-1.47;91.48;98477.81;4896643;28;20046;-66
2022/12/13 14:41:25;;;;;;;11.52;4.00;;;;;;;-0.91;91.68;98571.91;4817559;28;20251;-68
2022/12/13 14:44:23;;;;;;;10.85;3.95;;;;;;;-0.87;91.86;98583.06;4905730;28;20060;-66
2022/12/13 14:47:08;;;;;;;11.90;4.10;;;;;;;-0.87;92.11;98578.78;4911020;28;20044;-68
2022/12/13 14:50:19;;;;;;;6.75;3.50;;;;;;;-0.90;92.05;98568.50;4890691;28;20045;-66
2022/12/13 14:53:12;;;;;;;8.75;3.67;;;;;;;-0.94;92.48;98548.00;4886958;28;20049;-68
2022/12/13 14:56:12;;;;;;;17.67;4.00;;;;;;;-0.96;92.83;98542.84;4883297;28;20077;-67
2022/12/13 14:59:20;;;;;;;9.85;3.17;;;;;;;-0.96;93.01;98544.56;4897732;28;20372;-68
2022/12/13 15:02:11;;;;;;;10.20;3.70;;;;;;;-0.92;93.69;98539.44;4893133;28;20319;-65
2022/12/13 15:05:13;;;;;;;9.48;3.45;;;;;;;-1.73;94.02;98398.31;4900229;28;20101;-69
2022/12/13 15:08:23;;;;;;;9.50;3.88;;;;;;;-1.01;93.94;98524.03;4841002;28;20041;-66
2022/12/13 15:11:19;;;;;;;8.77;3.17;;;;;;;-0.93;94.21;98540.28;4916295;28;24857;-68
2022/12/13 15:14:17;;;;;;;8.50;3.42;;;;;;;-0.96;94.57;98547.97;4899394;28;20041;-66
2022/12/13 15:17:41;;;;;;;15.27;3.40;;;;;;;-0.93;94.83;98527.47;4905018;28;20394;-65
2022/12/13 15:20:32;;;;;;;11.30;3.50;;;;;;;-1.22;95.42;98488.09;4862523;28;20122;-64
2022/12/13 15:23:35;;;;;;;9.18;2.72;;;;;;;-0.97;96.02;98530.03;4862005;28;20053;-67
2022/12/13 15:29:49;;;;;;;12.48;3.80;;;;;;;-1.19;96.82;98467.63;4850385;28;20056;-68
2022/12/13 15:32:35;;;;;;;8.32;3.50;;;;;;;-0.98;97.09;98508.66;4863992;28;20047;-66
2022/12/13 15:35:24;;;;;;;10.15;3.78;;;;;;;-1.23;97.28;98455.66;4849105;28;20062;-65
2022/12/13 15:38:07;;;;;;;9.13;3.70;;;;;;;-0.93;97.22;98512.06;4857971;28;20108;-66
2022/12/13 15:41:19;;;;;;;11.38;4.65;;;;;;;-0.98;97.35;98498.41;4866267;28;20276;-64
2022/12/13 15:47:25;;;;;;;10.27;4.05;;;;;;;-0.92;97.34;98483.03;4850563;28;20374;-65
2022/12/13 15:50:07;;;;;;;9.27;4.03;;;;;;;-0.91;97.64;98487.31;4856971;28;20034;-65
2022/12/13 15:53:06;;;;;;;11.90;4.43;;;;;;;-1.06;97.49;98464.22;4864735;28;20056;-66
2022/12/13 15:55:47;;;;;;;9.98;3.65;;;;;;;-1.01;97.29;98470.19;4881854;28;20049;-66
2022/12/13 16:01:47;;;;;;;10.07;4.13;;;;;;;-0.95;96.80;98487.28;4860160;28;20052;-64
2022/12/13 16:04:37;;;;;;;9.02;3.85;;;;;;;-1.34;96.79;98438.53;4874592;28;20045;-66
2022/12/13 16:07:34;;;;;;;13.05;4.63;;;;;;;-1.10;97.19;98477.88;4887697;28;20132;-66
2022/12/13 16:10:36;;;;;;;13.05;4.30;;;;;;;-1.10;97.53;98472.75;4875914;28;20049;-65
2022/12/13 16:13:35;;;;;;;7.32;4.25;;;;;;;-1.14;97.13;98450.53;4832893;28;20058;-65
2022/12/13 16:16:42;;;;;;;14.07;4.88;;;;;;;-1.21;97.67;98428.31;4872144;28;20046;-63
2022/12/13 16:19:38;;;;;;;7.85;4.22;;;;;;;-1.00;97.50;98461.69;4888163;28;20357;-64
2022/12/13 16:22:23;;;;;;;8.77;4.07;;;;;;;-0.97;97.33;98468.50;4867777;28;20112;-65
2022/12/13 16:25:19;;;;;;;9.13;4.30;;;;;;;-0.93;97.30;98455.66;4877822;28;20056;-64
2022/12/13 16:28:16;;;;;;;10.90;4.55;;;;;;;-0.99;97.13;98437.72;4836103;28;20045;-64
2022/12/13 16:42:29;;;;;;;15.88;6.78;;;;;;;-1.13;98.04;98442.84;4691728;29;20047;-66
2022/12/13 16:45:23;;;;;;;14.25;5.70;;;;;;;-1.19;97.57;98442.00;4682861;29;20047;-66
2022/12/13 16:48:20;;;;;;;13.20;6.05;;;;;;;-1.31;97.75;98430.00;4682287;29;20109;-64
2022/12/13 16:57:18;;;;;;;14.10;5.22;;;;;;;-1.55;96.99;98423.13;4711316;29;20054;-66
2022/12/13 17:00:25;;;;;;;13.60;5.88;;;;;;;-1.90;96.43;98385.44;4700746;29;20042;-65
2022/12/13 17:03:31;;;;;;;8.65;5.10;;;;;;;-1.76;96.54;98414.53;4715188;29;20057;-65